Dalaman Airport

Airport
ICAO code: 
LTBS
IATA Code: 
DLM
Summary
ICAO Region: 
EUR
Territory: 
Location: 
Dalaman,
Serving: 
Dalaman
Elevation: 
20 ft
Coordinates: 
Aerial View: 
36° 42' 45" N, 28° 47' 29" E
Airport RI: 
Runway Misidentification
Metar
Observation
LTBS 030220Z 02007KT 9999 FEW030 SCT120 11/07 Q1019 NOSIG
Station
Dalaman
Date/Time
2021-12-03 02:20:00
Wind direction
20°
Wind speed
07 kts
Lowest cloud amount
few clouds
Temperature
11°C
Dew point
7°C
Humidity
76%
QNH
1019 hPa
Weather condition
n/a

Description

International airport serving south-west Turkey, located 3 nm south of the town of Dalaman and with high ground to the north, east, and west.

Climatology

Typical Mediterranean climate with hot dry summers and mild, wet winters (Köppen climate classification Csa).

Runways

Designator Length Width Surface Rops
1/19 3000 45 CON Yes/Yes
Airport map: 
Aerial View: 

SKYbrary Partners:

Safety knowledge contributed by: